Time;durP1;ratioP1;P1;durP2;ratioP2;P2;SDS_P1;SDS_P2;PMS_P1;PMS_P2;Temp;Humidity;BMP_temperature;BMP_pressure;BME280_temperature;BME280_humidity;BME280_pressure;Samples;Min_cycle;Max_cycle;Signal;HPM_P1;HPM_P2
2023/06/22 00:01:23;;;;;;;;;;;;;;;22.73;88.69;99981.63;5008945;28;20325;-75
2023/06/22 00:03:48;;;;;;;;;;;;;;;22.75;87.98;99992.16;5005862;28;19921;-74
2023/06/22 00:06:14;;;;;;;;;;;;;;;22.78;86.93;99987.22;5009371;28;19933;-74
2023/06/22 00:08:40;;;;;;;;;;;;;;;22.80;86.98;99995.03;5011175;28;19922;-74
2023/06/22 00:11:05;;;;;;;;;;;;;;;22.80;87.75;99995.88;5009230;28;20008;-74
2023/06/22 00:13:31;;;;;;;;;;;;;;;22.78;87.95;99989.91;5006513;28;19922;-75
2023/06/22 00:15:56;;;;;;;;;;;;;;;22.77;88.41;99990.94;5009065;28;19926;-74
2023/06/22 00:18:22;;;;;;;;;;;;;;;22.74;89.57;99987.81;5012219;28;19922;-75
2023/06/22 00:20:47;;;;;;;;;;;;;;;22.71;90.59;99996.28;5011720;28;19978;-75
2023/06/22 00:23:13;;;;;;;;;;;;;;;22.66;91.56;99988.03;5006837;28;19951;-75
2023/06/22 00:25:42;;;;;;;;;;;;;;;22.62;93.23;99986.81;5010558;28;20604;-75
2023/06/22 00:28:07;;;;;;;;;;;;;;;22.63;94.32;99980.38;5025534;28;19929;-74
2023/06/22 00:30:34;;;;;;;;;;;;;;;22.61;95.79;99985.16;5014168;28;20023;-75
2023/06/22 00:33:00;;;;;;;;;;;;;;;22.65;95.29;99991.75;5009662;28;19926;-75
2023/06/22 00:35:29;;;;;;;;;;;;;;;22.64;95.51;99995.47;5010873;28;19975;-74
2023/06/22 00:38:00;;;;;;;;;;;;;;;22.56;96.06;99999.22;5018645;28;19918;-73
2023/06/22 00:40:35;;;;;;;;;;;;;;;22.61;95.75;99998.59;5008361;28;20415;-74
2023/06/22 00:43:00;;;;;;;;;;;;;;;22.48;96.63;100004.00;5011482;28;19925;-74
2023/06/22 00:45:26;;;;;;;;;;;;;;;22.28;98.87;99999.44;5012526;28;19945;-75
2023/06/22 00:47:58;;;;;;;;;;;;;;;21.96;100.00;99992.22;5007489;28;19928;-74
2023/06/22 00:50:28;;;;;;;;;;;;;;;21.68;100.00;99986.16;5009146;28;19917;-74
2023/06/22 00:52:58;;;;;;;;;;;;;;;21.46;100.00;99986.31;5010085;28;19948;-73
2023/06/22 00:55:25;;;;;;;;;;;;;;;21.41;100.00;99978.03;5002594;28;19992;-74
2023/06/22 00:57:55;;;;;;;;;;;;;;;21.32;100.00;99962.34;5008423;28;20309;-74
2023/06/22 01:00:24;;;;;;;;;;;;;;;21.21;100.00;99955.66;5004549;28;19926;-75
2023/06/22 01:02:51;;;;;;;;;;;;;;;21.12;100.00;99959.53;5023779;28;19949;-74
2023/06/22 01:05:18;;;;;;;;;;;;;;;21.21;100.00;99950.31;5029134;28;19921;-74
2023/06/22 01:08:02;;;;;;;;;;;;;;;21.32;100.00;99957.78;5014273;28;19921;-74
2023/06/22 01:10:41;;;;;;;;;;;;;;;21.41;100.00;99961.94;5009727;28;19921;-73
2023/06/22 01:13:11;;;;;;;;;;;;;;;21.36;100.00;99969.78;5007290;28;19969;-73
2023/06/22 01:15:45;;;;;;;;;;;;;;;21.47;100.00;99987.97;5006489;28;19933;-73
2023/06/22 01:18:13;;;;;;;;;;;;;;;21.37;100.00;99992.91;5019055;28;19940;-74
2023/06/22 01:20:39;;;;;;;;;;;;;;;21.40;100.00;99981.75;5004821;28;19922;-74
2023/06/22 01:23:11;;;;;;;;;;;;;;;21.46;100.00;99980.94;5003016;28;19993;-74
2023/06/22 01:25:55;;;;;;;;;;;;;;;21.49;100.00;99979.72;5004373;28;19932;-74
2023/06/22 01:28:41;;;;;;;;;;;;;;;21.57;100.00;99961.53;5005471;28;20281;-73
2023/06/22 01:31:11;;;;;;;;;;;;;;;21.72;100.00;99963.22;4997159;28;20304;-74
2023/06/22 01:33:39;;;;;;;;;;;;;;;21.75;100.00;99960.13;5009108;28;20016;-74
2023/06/22 01:36:04;;;;;;;;;;;;;;;21.84;100.00;99961.59;5002421;28;20346;-74
2023/06/22 01:38:31;;;;;;;;;;;;;;;21.90;100.00;99956.22;5015248;28;20014;-74
2023/06/22 01:40:57;;;;;;;;;;;;;;;21.94;100.00;99948.56;5005030;28;20344;-75
2023/06/22 01:43:24;;;;;;;;;;;;;;;21.98;100.00;99947.97;5007913;28;20350;-72
2023/06/22 01:45:50;;;;;;;;;;;;;;;21.98;100.00;99955.22;5009471;28;19922;-74
2023/06/22 01:48:15;;;;;;;;;;;;;;;22.01;100.00;99954.81;5007993;28;19965;-74
2023/06/22 01:50:43;;;;;;;;;;;;;;;22.08;100.00;99947.59;5017441;28;19953;-73
2023/06/22 01:53:10;;;;;;;;;;;;;;;22.12;100.00;99939.91;5008475;28;20282;-73
2023/06/22 01:55:35;;;;;;;;;;;;;;;22.13;100.00;99950.47;4998685;28;19926;-73
2023/06/22 01:58:01;;;;;;;;;;;;;;;22.16;100.00;99960.78;5009576;28;19928;-73
2023/06/22 02:00:28;;;;;;;;;;;;;;;22.11;100.00;99974.03;5017918;28;20587;-73
2023/06/22 02:02:59;;;;;;;;;;;;;;;22.06;100.00;99976.50;5009478;28;19979;-74
2023/06/22 02:05:26;;;;;;;;;;;;;;;22.01;100.00;99957.50;5009717;28;20316;-73
2023/06/22 02:07:57;;;;;;;;;;;;;;;22.02;100.00;99956.47;5010749;28;19918;-74
2023/06/22 02:10:23;;;;;;;;;;;;;;;22.04;100.00;99990.16;5010122;28;20213;-73
2023/06/22 02:12:50;;;;;;;;;;;;;;;21.99;100.00;100010.59;5012795;28;20289;-73
2023/06/22 02:15:16;;;;;;;;;;;;;;;21.94;100.00;100005.81;5023777;28;19930;-73
2023/06/22 02:17:44;;;;;;;;;;;;;;;21.71;100.00;100001.88;5010419;28;19921;-74
2023/06/22 02:20:14;;;;;;;;;;;;;;;21.08;100.00;100009.28;5007997;28;19980;-74
2023/06/22 02:22:40;;;;;;;;;;;;;;;21.01;100.00;100000.38;5007331;28;19921;-73
2023/06/22 02:25:08;;;;;;;;;;;;;;;21.01;100.00;99997.69;5006376;28;19964;-74
2023/06/22 02:27:33;;;;;;;;;;;;;;;21.09;100.00;100005.53;5008409;28;20075;-73
2023/06/22 02:29:59;;;;;;;;;;;;;;;21.14;100.00;99989.69;5007844;28;19922;-73
2023/06/22 02:32:24;;;;;;;;;;;;;;;21.22;100.00;99973.44;5013348;28;19921;-73
2023/06/22 02:34:50;;;;;;;;;;;;;;;21.28;100.00;99975.31;5009584;28;19929;-75
2023/06/22 02:37:16;;;;;;;;;;;;;;;21.36;100.00;99974.31;5014459;28;19937;-74
2023/06/22 02:39:42;;;;;;;;;;;;;;;21.42;100.00;99962.75;5011984;28;19921;-74
2023/06/22 02:42:07;;;;;;;;;;;;;;;21.46;100.00;99962.16;5020862;28;19957;-73
2023/06/22 02:44:33;;;;;;;;;;;;;;;21.48;100.00;99962.78;5010236;28;19948;-73
2023/06/22 02:46:58;;;;;;;;;;;;;;;21.50;100.00;99955.31;5011999;28;19922;-74
2023/06/22 02:49:24;;;;;;;;;;;;;;;21.49;100.00;99942.97;5008117;28;19998;-73
2023/06/22 02:51:51;;;;;;;;;;;;;;;21.49;100.00;99955.56;5021125;28;19922;-73
2023/06/22 02:54:19;;;;;;;;;;;;;;;21.55;100.00;99957.44;5023005;28;19929;-73
2023/06/22 02:56:47;;;;;;;;;;;;;;;21.58;100.00;99957.84;5008218;28;19945;-74
2023/06/22 02:59:13;;;;;;;;;;;;;;;21.58;100.00;99949.78;5020344;28;19972;-73
2023/06/22 03:01:41;;;;;;;;;;;;;;;21.60;100.00;99945.03;5010123;28;19921;-74
2023/06/22 03:04:16;;;;;;;;;;;;;;;21.60;100.00;99934.31;5028705;28;19979;-73
2023/06/22 03:06:41;;;;;;;;;;;;;;;21.58;100.00;99925.63;5020342;28;19921;-73
2023/06/22 03:09:07;;;;;;;;;;;;;;;21.56;100.00;99922.28;5008856;28;19921;-74
2023/06/22 03:11:34;;;;;;;;;;;;;;;21.43;100.00;99933.03;5020443;28;19921;-72
2023/06/22 03:14:00;;;;;;;;;;;;;;;21.44;100.00;99941.91;5011211;28;19931;-74
2023/06/22 03:16:26;;;;;;;;;;;;;;;21.34;100.00;99949.50;5007472;28;19922;-75
2023/06/22 03:18:53;;;;;;;;;;;;;;;21.35;100.00;99941.28;5020025;28;20282;-73
2023/06/22 03:21:19;;;;;;;;;;;;;;;21.38;100.00;99932.00;5020627;28;19936;-72
2023/06/22 03:23:44;;;;;;;;;;;;;;;21.39;100.00;99926.41;5026551;28;19921;-72
2023/06/22 03:26:10;;;;;;;;;;;;;;;21.45;100.00;99925.59;5006275;28;19922;-72
2023/06/22 03:28:36;;;;;;;;;;;;;;;21.43;100.00;99924.97;5010563;28;20000;-72
2023/06/22 03:31:03;;;;;;;;;;;;;;;21.51;100.00;99929.31;5005682;28;20016;-73
2023/06/22 03:33:30;;;;;;;;;;;;;;;21.58;100.00;99938.22;5007537;28;20358;-73
2023/06/22 03:35:57;;;;;;;;;;;;;;;21.57;100.00;99945.44;5023037;28;20298;-73
2023/06/22 03:38:22;;;;;;;;;;;;;;;21.60;100.00;99939.66;5025657;28;19921;-72
2023/06/22 03:40:51;;;;;;;;;;;;;;;21.55;100.00;99958.25;5027789;28;20032;-72
2023/06/22 03:43:17;;;;;;;;;;;;;;;21.26;100.00;99972.03;5008368;28;19921;-73
2023/06/22 03:45:45;;;;;;;;;;;;;;;20.80;100.00;99975.28;5007123;28;19925;-76
2023/06/22 03:48:11;;;;;;;;;;;;;;;20.51;100.00;99975.53;5009979;28;20385;-76
2023/06/22 03:50:37;;;;;;;;;;;;;;;20.51;100.00;99988.94;5022374;28;19922;-74
2023/06/22 03:53:02;;;;;;;;;;;;;;;20.37;100.00;99995.25;5010920;28;20424;-73
2023/06/22 03:55:28;;;;;;;;;;;;;;;20.23;100.00;99982.72;5005698;28;19968;-73
2023/06/22 03:57:56;;;;;;;;;;;;;;;20.20;100.00;99977.78;5011304;28;19925;-73
2023/06/22 04:00:23;;;;;;;;;;;;;;;20.26;100.00;99985.03;5010239;28;20600;-73
2023/06/22 04:02:49;;;;;;;;;;;;;;;20.33;100.00;100007.34;5008036;28;19929;-74
2023/06/22 04:05:15;;;;;;;;;;;;;;;20.36;100.00;100023.06;5027718;23;19931;-77
2023/06/22 04:07:41;;;;;;;;;;;;;;;20.37;100.00;100038.13;5012379;28;20299;-77
2023/06/22 04:10:06;;;;;;;;;;;;;;;20.38;100.00;100045.16;5012419;28;19921;-78
2023/06/22 04:12:31;;;;;;;;;;;;;;;20.40;100.00;100043.91;5012325;28;19977;-78
2023/06/22 04:14:57;;;;;;;;;;;;;;;20.50;100.00;100040.09;5011713;28;19991;-78
2023/06/22 04:17:24;;;;;;;;;;;;;;;20.54;100.00;100039.50;5011268;28;20292;-78
2023/06/22 04:19:50;;;;;;;;;;;;;;;20.49;100.00;100036.56;5007580;28;19926;-77
2023/06/22 04:22:15;;;;;;;;;;;;;;;20.41;100.00;100028.66;5012489;28;19925;-78
2023/06/22 04:24:41;;;;;;;;;;;;;;;20.50;100.00;100022.13;5011727;28;20258;-78
2023/06/22 04:27:06;;;;;;;;;;;;;;;20.55;100.00;100006.31;5012177;28;20349;-77
2023/06/22 04:29:32;;;;;;;;;;;;;;;20.66;100.00;100005.75;5010862;28;20261;-77
2023/06/22 04:31:58;;;;;;;;;;;;;;;20.76;100.00;100010.75;5008245;28;20448;-78
2023/06/22 04:34:26;;;;;;;;;;;;;;;20.79;100.00;100011.16;5010525;28;19922;-77
2023/06/22 04:36:51;;;;;;;;;;;;;;;20.90;100.00;100015.19;5011184;28;19922;-77
2023/06/22 04:39:17;;;;;;;;;;;;;;;20.97;100.00;100023.25;5006358;28;20341;-77
2023/06/22 04:41:42;;;;;;;;;;;;;;;21.04;100.00;100016.06;5011559;28;19922;-78
2023/06/22 04:44:11;;;;;;;;;;;;;;;21.12;100.00;100010.53;5012080;28;19922;-77
2023/06/22 04:46:38;;;;;;;;;;;;;;;21.20;100.00;100015.75;5008586;28;19975;-78
2023/06/22 04:49:09;;;;;;;;;;;;;;;21.31;100.00;100009.81;5011760;28;20012;-77
2023/06/22 04:51:39;;;;;;;;;;;;;;;21.40;100.00;100008.59;5011447;28;19922;-78
2023/06/22 04:54:05;;;;;;;;;;;;;;;21.42;100.00;100011.91;5010827;28;19932;-77
2023/06/22 04:56:31;;;;;;;;;;;;;;;21.47;100.00;100009.44;5011260;28;19922;-77
2023/06/22 04:58:56;;;;;;;;;;;;;;;21.55;100.00;100006.59;5011380;28;20582;-77
2023/06/22 05:01:22;;;;;;;;;;;;;;;21.62;100.00;100007.41;5009874;28;20274;-78
2023/06/22 05:03:48;;;;;;;;;;;;;;;21.68;100.00;100010.34;5008361;28;19921;-77
2023/06/22 05:06:14;;;;;;;;;;;;;;;21.68;100.00;100026.47;5012777;28;20284;-76
2023/06/22 05:08:39;;;;;;;;;;;;;;;21.70;100.00;100019.00;5011371;28;19922;-77
2023/06/22 05:11:05;;;;;;;;;;;;;;;21.68;100.00;100021.88;5011534;28;19933;-77
2023/06/22 05:13:30;;;;;;;;;;;;;;;21.63;100.00;100019.81;5011273;28;20353;-81
2023/06/22 05:16:00;;;;;;;;;;;;;;;21.64;100.00;100018.78;5011312;28;19926;-80
2023/06/22 05:18:27;;;;;;;;;;;;;;;21.64;100.00;100012.59;5008736;28;20289;-77
2023/06/22 05:20:53;;;;;;;;;;;;;;;21.68;100.00;100004.97;5008190;28;20040;-74
2023/06/22 05:23:19;;;;;;;;;;;;;;;21.75;100.00;100000.41;5005117;28;20385;-76
2023/06/22 05:25:44;;;;;;;;;;;;;;;21.81;100.00;99995.06;5010217;28;20008;-73
2023/06/22 05:28:11;;;;;;;;;;;;;;;21.85;100.00;99996.31;5009374;28;19925;-76
2023/06/22 05:30:36;;;;;;;;;;;;;;;21.91;100.00;99997.38;5006083;28;19921;-78
2023/06/22 05:33:02;;;;;;;;;;;;;;;21.95;100.00;100010.22;5011974;28;19928;-76
2023/06/22 05:35:27;;;;;;;;;;;;;;;21.94;100.00;100013.88;5011416;28;20340;-76
2023/06/22 05:37:53;;;;;;;;;;;;;;;22.02;100.00;100029.03;5014459;28;20483;-80
2023/06/22 05:40:18;;;;;;;;;;;;;;;22.08;100.00;100038.97;5014197;28;19944;-78
2023/06/22 05:42:43;;;;;;;;;;;;;;;22.15;100.00;100039.75;5014291;28;19952;-79
2023/06/22 05:45:09;;;;;;;;;;;;;;;22.25;100.00;100040.22;5013478;28;19929;-79
2023/06/22 05:47:34;;;;;;;;;;;;;;;22.25;100.00;100039.38;5029947;28;19925;-81
2023/06/22 05:50:00;;;;;;;;;;;;;;;22.21;100.00;100033.56;5015006;28;19937;-80
2023/06/22 05:52:25;;;;;;;;;;;;;;;22.28;100.00;100030.88;5015442;28;19931;-78
2023/06/22 05:54:50;;;;;;;;;;;;;;;22.31;100.00;100036.69;5013901;28;19968;-79
2023/06/22 05:57:15;;;;;;;;;;;;;;;22.38;100.00;100024.03;5018140;28;19922;-77
2023/06/22 05:59:41;;;;;;;;;;;;;;;22.46;100.00;100007.72;5014538;28;20012;-81
2023/06/22 06:02:06;;;;;;;;;;;;;;;22.52;100.00;100008.72;5010964;28;20012;-78
2023/06/22 06:04:32;;;;;;;;;;;;;;;22.59;100.00;100014.94;5014985;28;19930;-79
2023/06/22 06:06:57;;;;;;;;;;;;;;;22.63;100.00;100021.53;5014903;28;19921;-79
2023/06/22 06:09:22;;;;;;;;;;;;;;;22.67;100.00;100016.59;5014723;28;20345;-79
2023/06/22 06:11:48;;;;;;;;;;;;;;;22.73;100.00;100007.72;5012315;28;21337;-79
2023/06/22 06:14:13;;;;;;;;;;;;;;;22.79;100.00;99994.25;5011249;28;19933;-80
2023/06/22 06:16:38;;;;;;;;;;;;;;;22.86;100.00;99984.28;5012247;28;20032;-79
2023/06/22 06:19:04;;;;;;;;;;;;;;;22.98;100.00;99986.28;5013321;28;20023;-78
2023/06/22 06:21:29;;;;;;;;;;;;;;;23.06;100.00;99986.91;5014485;28;19921;-78
2023/06/22 06:23:54;;;;;;;;;;;;;;;23.10;100.00;99995.38;5013279;28;19926;-79
2023/06/22 06:26:27;;;;;;;;;;;;;;;23.13;100.00;99982.31;5009727;28;20012;-78
2023/06/22 06:28:53;;;;;;;;;;;;;;;23.16;100.00;99968.41;5014493;28;19960;-79
2023/06/22 06:31:18;;;;;;;;;;;;;;;23.14;100.00;99965.13;5013696;28;20046;-78
2023/06/22 06:33:43;;;;;;;;;;;;;;;23.16;100.00;99979.19;5013442;28;19921;-78
2023/06/22 06:36:09;;;;;;;;;;;;;;;23.20;100.00;100007.34;5013645;28;19921;-79
2023/06/22 06:38:34;;;;;;;;;;;;;;;23.20;100.00;100011.91;5013648;28;19922;-78
2023/06/22 06:41:00;;;;;;;;;;;;;;;23.12;100.00;100018.34;5010065;28;19929;-78
2023/06/22 06:43:25;;;;;;;;;;;;;;;23.11;100.00;100024.78;5013921;28;19921;-78
2023/06/22 06:46:16;;;;;;;;;;;;;;;23.14;100.00;100040.50;5027894;28;19921;-79
2023/06/22 06:48:43;;;;;;;;;;;;;;;23.20;100.00;100028.91;5011507;28;19955;-79
2023/06/22 06:51:09;;;;;;;;;;;;;;;23.13;100.00;100027.25;5013285;28;20321;-79
2023/06/22 06:53:35;;;;;;;;;;;;;;;23.19;100.00;100027.25;5013375;28;20406;-79
2023/06/22 06:56:01;;;;;;;;;;;;;;;23.15;100.00;100027.88;5013436;28;19929;-79
2023/06/22 06:58:26;;;;;;;;;;;;;;;23.25;100.00;100037.16;5012521;28;20421;-80
2023/06/22 07:00:51;;;;;;;;;;;;;;;23.30;100.00;100043.75;5012909;28;19965;-80
2023/06/22 07:03:18;;;;;;;;;;;;;;;23.34;100.00;100045.81;5013245;28;19921;-80
2023/06/22 07:05:43;;;;;;;;;;;;;;;23.40;100.00;100044.13;5012579;28;20368;-80
2023/06/22 07:08:10;;;;;;;;;;;;;;;23.47;100.00;100051.16;5013349;28;19921;-80
2023/06/22 07:10:35;;;;;;;;;;;;;;;23.54;100.00;100045.75;5012733;28;19937;-79
2023/06/22 07:13:01;;;;;;;;;;;;;;;23.57;100.00;100051.53;5012930;28;19922;-80
2023/06/22 07:15:26;;;;;;;;;;;;;;;23.68;100.00;100041.94;5012461;28;19928;-81
2023/06/22 07:17:51;;;;;;;;;;;;;;;23.75;100.00;100053.50;5015805;28;19929;-79
2023/06/22 07:20:17;;;;;;;;;;;;;;;23.83;100.00;100055.13;5012824;28;19944;-79
2023/06/22 07:22:43;;;;;;;;;;;;;;;23.89;100.00;100059.66;5012475;28;20388;-81
2023/06/22 07:25:09;;;;;;;;;;;;;;;23.95;100.00;100075.78;5012516;28;19921;-79
2023/06/22 07:27:45;;;;;;;;;;;;;;;24.01;100.00;100074.91;5012985;28;20306;-79
2023/06/22 07:30:11;;;;;;;;;;;;;;;24.06;100.00;100067.00;5013967;28;19925;-80
2023/06/22 07:32:36;;;;;;;;;;;;;;;24.12;100.00;100068.00;5010955;28;20040;-80
2023/06/22 07:35:02;;;;;;;;;;;;;;;24.17;100.00;100053.84;5012513;28;19929;-80
2023/06/22 07:37:30;;;;;;;;;;;;;;;24.21;100.00;100047.81;5012655;28;20004;-79
2023/06/22 07:39:58;;;;;;;;;;;;;;;24.31;100.00;100036.56;5011597;28;20400;-80
2023/06/22 07:42:24;;;;;;;;;;;;;;;24.40;100.00;100040.63;5012495;28;19922;-78
2023/06/22 07:44:50;;;;;;;;;;;;;;;24.48;100.00;100035.78;5010906;28;20353;-80
2023/06/22 07:47:17;;;;;;;;;;;;;;;24.56;100.00;100029.31;5012699;28;19926;-80
2023/06/22 07:49:43;;;;;;;;;;;;;;;24.65;100.00;100025.25;5012083;28;20598;-79
2023/06/22 07:52:08;;;;;;;;;;;;;;;24.73;100.00;100024.97;5012289;28;19968;-79
2023/06/22 07:54:34;;;;;;;;;;;;;;;24.80;100.00;100020.31;5012122;28;19921;-80
2023/06/22 07:56:59;;;;;;;;;;;;;;;24.86;100.00;100011.31;5011838;28;20369;-80
2023/06/22 07:59:24;;;;;;;;;;;;;;;24.94;100.00;100020.22;5010619;28;19921;-79
2023/06/22 08:01:50;;;;;;;;;;;;;;;25.01;100.00;100012.88;5011524;28;19940;-79
2023/06/22 08:04:15;;;;;;;;;;;;;;;25.07;100.00;100014.66;5011996;28;19929;-80
2023/06/22 08:06:41;;;;;;;;;;;;;;;25.14;99.21;100026.22;5011905;28;19922;-80
2023/06/22 08:09:06;;;;;;;;;;;;;;;25.19;99.67;100013.69;5011957;28;19922;-80
2023/06/22 08:11:32;;;;;;;;;;;;;;;25.29;98.88;100015.84;5011910;28;20412;-79
2023/06/22 08:13:58;;;;;;;;;;;;;;;25.35;98.65;100011.41;5011704;28;19921;-79
2023/06/22 08:16:23;;;;;;;;;;;;;;;25.41;98.82;100005.91;5007566;28;19921;-79
2023/06/22 08:18:49;;;;;;;;;;;;;;;25.49;98.55;100002.91;5011610;28;19976;-80
2023/06/22 08:21:14;;;;;;;;;;;;;;;25.57;95.60;100004.47;5011818;28;20365;-80
2023/06/22 08:23:39;;;;;;;;;;;;;;;25.62;95.78;99997.31;5008265;28;19932;-79
2023/06/22 08:26:05;;;;;;;;;;;;;;;25.65;96.91;99996.88;5011992;28;19922;-80
2023/06/22 08:28:30;;;;;;;;;;;;;;;25.69;96.30;99994.53;5013432;28;19925;-80
2023/06/22 08:30:55;;;;;;;;;;;;;;;25.74;96.33;99991.16;5011492;28;19968;-80
2023/06/22 08:33:24;;;;;;;;;;;;;;;25.79;96.35;99991.28;5011411;28;20306;-79
2023/06/22 08:35:50;;;;;;;;;;;;;;;25.85;96.16;99993.88;5007457;28;19925;-80
2023/06/22 08:38:15;;;;;;;;;;;;;;;25.91;95.78;99994.84;5009187;28;19918;-80
2023/06/22 08:40:40;;;;;;;;;;;;;;;25.92;93.37;99997.28;5009505;28;20386;-80
2023/06/22 08:43:06;;;;;;;;;;;;;;;25.96;93.74;99997.66;5011529;28;19918;-80
2023/06/22 08:45:31;;;;;;;;;;;;;;;26.03;93.19;99991.13;5011197;28;19922;-79
2023/06/22 08:47:57;;;;;;;;;;;;;;;26.09;91.01;99989.34;5011239;28;19977;-79
2023/06/22 08:50:22;;;;;;;;;;;;;;;26.16;91.02;99981.94;5011950;28;19917;-79
2023/06/22 08:52:48;;;;;;;;;;;;;;;26.25;92.89;99975.16;5010950;28;19922;-80
2023/06/22 08:55:14;;;;;;;;;;;;;;;26.33;93.08;99982.91;5011481;28;19926;-78
2023/06/22 08:57:39;;;;;;;;;;;;;;;26.41;92.48;99968.22;5010424;28;20411;-79
2023/06/22 09:00:11;;;;;;;;;;;;;;;26.45;91.69;99970.22;5012974;28;19921;-79
2023/06/22 09:02:36;;;;;;;;;;;;;;;26.50;92.50;99966.81;5011340;28;20365;-80
2023/06/22 09:05:03;;;;;;;;;;;;;;;26.55;93.13;99955.28;5011335;28;19921;-80
2023/06/22 09:07:28;;;;;;;;;;;;;;;26.57;91.49;99955.88;5011889;28;19929;-79
2023/06/22 09:09:53;;;;;;;;;;;;;;;26.61;90.92;99952.44;5009537;28;19925;-78
2023/06/22 09:12:25;;;;;;;;;;;;;;;26.67;90.00;99946.09;5006368;28;20393;-79
2023/06/22 09:14:50;;;;;;;;;;;;;;;26.74;92.03;99940.53;5015898;28;19929;-80
2023/06/22 09:17:16;;;;;;;;;;;;;;;26.77;90.10;99938.16;5014311;28;19929;-80
2023/06/22 09:19:41;;;;;;;;;;;;;;;26.81;90.72;99920.38;5016168;28;19963;-80
2023/06/22 09:22:07;;;;;;;;;;;;;;;26.88;91.06;99925.69;5013333;28;19995;-80
2023/06/22 09:24:32;;;;;;;;;;;;;;;26.96;89.93;99928.03;5013360;28;19925;-80
2023/06/22 09:26:58;;;;;;;;;;;;;;;27.02;87.95;99916.22;5011364;28;19991;-80
2023/06/22 09:29:23;;;;;;;;;;;;;;;27.06;86.76;99901.13;5012744;28;19921;-80
2023/06/22 09:31:49;;;;;;;;;;;;;;;27.13;82.68;99907.25;5013374;28;19936;-80
2023/06/22 09:34:14;;;;;;;;;;;;;;;27.18;81.96;99890.25;5011865;28;19922;-80
2023/06/22 09:36:40;;;;;;;;;;;;;;;27.23;80.77;99888.44;5011900;28;20157;-80
2023/06/22 09:39:06;;;;;;;;;;;;;;;27.30;79.42;99885.59;5014599;28;20472;-81
2023/06/22 09:41:32;;;;;;;;;;;;;;;27.35;76.31;99888.41;5013693;28;19922;-80
2023/06/22 09:43:57;;;;;;;;;;;;;;;27.41;68.35;99892.84;5013003;28;20341;-79
2023/06/22 09:46:25;;;;;;;;;;;;;;;27.44;69.26;99872.56;5012997;28;19921;-82
2023/06/22 09:48:50;;;;;;;;;;;;;;;27.50;68.43;99871.59;5016463;28;20169;-85
2023/06/22 09:51:15;;;;;;;;;;;;;;;27.55;69.22;99869.00;5013535;28;19937;-82
2023/06/22 09:53:41;;;;;;;;;;;;;;;27.57;68.32;99864.13;5014815;28;20403;-83
2023/06/22 09:56:06;;;;;;;;;;;;;;;27.64;66.46;99859.38;5015700;28;19976;-83
2023/06/22 09:58:31;;;;;;;;;;;;;;;27.70;63.41;99858.38;5013390;28;19929;-80
2023/06/22 10:00:57;;;;;;;;;;;;;;;27.79;63.99;99848.78;5013879;28;20004;-82
2023/06/22 10:03:22;;;;;;;;;;;;;;;27.82;64.07;99848.28;5012214;28;20339;-82
2023/06/22 10:05:48;;;;;;;;;;;;;;;27.85;63.90;99855.94;5007459;28;19949;-84
2023/06/22 10:08:14;;;;;;;;;;;;;;;27.90;63.40;99849.75;5017324;28;19922;-83
2023/06/22 10:10:39;;;;;;;;;;;;;;;27.94;63.26;99848.19;5006553;28;19925;-82
2023/06/22 10:13:10;;;;;;;;;;;;;;;28.00;62.94;99847.19;5009344;28;19921;-81
2023/06/22 10:15:35;;;;;;;;;;;;;;;28.04;62.77;99849.13;5010875;28;19969;-82
2023/06/22 10:18:00;;;;;;;;;;;;;;;28.14;62.57;99848.50;5013663;28;19972;-82
2023/06/22 10:20:26;;;;;;;;;;;;;;;28.25;57.27;99853.00;5015879;28;19937;-81
2023/06/22 10:22:51;;;;;;;;;;;;;;;28.32;57.46;99860.97;5013724;28;20408;-82
2023/06/22 10:25:17;;;;;;;;;;;;;;;28.38;55.39;99870.81;5014104;28;20401;-81
2023/06/22 10:27:42;;;;;;;;;;;;;;;28.42;56.77;99871.94;5009578;28;19922;-81
2023/06/22 10:30:09;;;;;;;;;;;;;;;28.52;55.13;99863.94;5014084;28;20575;-81
2023/06/22 10:32:34;;;;;;;;;;;;;;;28.58;55.37;99862.91;5013231;28;19964;-82
2023/06/22 10:34:59;;;;;;;;;;;;;;;28.64;56.13;99856.47;5013598;28;19969;-82
2023/06/22 10:37:25;;;;;;;;;;;;;;;28.69;55.87;99848.38;5013642;28;19925;-82
2023/06/22 10:39:50;;;;;;;;;;;;;;;28.75;54.45;99841.97;5013406;28;19994;-82
2023/06/22 10:42:15;;;;;;;;;;;;;;;28.78;55.08;99833.34;5013538;28;19928;-81
2023/06/22 10:44:43;;;;;;;;;;;;;;;28.86;56.64;99830.13;5010422;28;19929;-80
2023/06/22 10:47:08;;;;;;;;;;;;;;;28.96;56.43;99828.63;5024558;28;20087;-80
2023/06/22 10:49:33;;;;;;;;;;;;;;;29.03;56.01;99826.53;5013421;28;19968;-81
2023/06/22 10:51:59;;;;;;;;;;;;;;;29.08;56.42;99834.72;5013299;28;19922;-82
2023/06/22 10:54:24;;;;;;;;;;;;;;;29.13;54.99;99846.47;5013937;28;19921;-79
2023/06/22 10:56:50;;;;;;;;;;;;;;;29.16;53.30;99850.56;5013996;28;19933;-80
2023/06/22 10:59:16;;;;;;;;;;;;;;;29.20;53.66;99854.41;5011617;28;19927;-81
2023/06/22 11:01:41;;;;;;;;;;;;;;;29.21;53.68;99851.44;5011331;28;20012;-80
2023/06/22 11:04:07;;;;;;;;;;;;;;;29.26;53.02;99856.94;5012872;28;19929;-82
2023/06/22 11:06:33;;;;;;;;;;;;;;;29.32;52.46;99860.50;5013108;28;20021;-81
2023/06/22 11:08:58;;;;;;;;;;;;;;;29.38;51.97;99859.50;5011848;28;20369;-81
2023/06/22 11:11:25;;;;;;;;;;;;;;;29.46;50.74;99848.16;5009041;28;20007;-78
2023/06/22 11:13:50;;;;;;;;;;;;;;;29.55;50.13;99848.50;5008271;28;20021;-81
2023/06/22 11:16:16;;;;;;;;;;;;;;;29.60;50.61;99846.63;5006925;28;20012;-81
2023/06/22 11:18:41;;;;;;;;;;;;;;;29.66;50.84;99853.75;5010928;28;19922;-80
2023/06/22 11:21:06;;;;;;;;;;;;;;;29.76;48.79;99863.06;5011275;28;20008;-80
2023/06/22 11:23:32;;;;;;;;;;;;;;;29.82;48.25;99862.84;5013287;28;19929;-80
2023/06/22 11:25:57;;;;;;;;;;;;;;;29.94;46.62;99857.25;5012190;28;19922;-80
2023/06/22 11:28:22;;;;;;;;;;;;;;;29.98;44.65;99850.22;5012677;28;20352;-81
2023/06/22 11:30:48;;;;;;;;;;;;;;;30.00;44.93;99853.47;5012763;28;20324;-81
2023/06/22 11:33:13;;;;;;;;;;;;;;;30.03;44.93;99845.63;5009455;28;19925;-80
2023/06/22 11:35:38;;;;;;;;;;;;;;;30.05;46.10;99837.16;5010511;28;19922;-77
2023/06/22 11:38:04;;;;;;;;;;;;;;;30.08;46.95;99836.66;5005762;28;19928;-81
2023/06/22 11:40:30;;;;;;;;;;;;;;;30.13;46.52;99823.06;5003843;28;19971;-79
2023/06/22 11:42:55;;;;;;;;;;;;;;;30.18;49.19;99814.94;5009955;28;20036;-78
2023/06/22 11:45:21;;;;;;;;;;;;;;;30.23;50.71;99806.78;5011032;28;19922;-77
2023/06/22 11:47:46;;;;;;;;;;;;;;;30.23;47.35;99812.22;5008607;28;19928;-78
2023/06/22 11:50:12;;;;;;;;;;;;;;;30.21;46.49;99800.81;5006569;28;19922;-78
2023/06/22 11:52:37;;;;;;;;;;;;;;;30.17;46.23;99766.19;5013923;28;20017;-80
2023/06/22 11:55:05;;;;;;;;;;;;;;;30.10;44.53;99725.66;5006057;28;19922;-79
2023/06/22 11:57:30;;;;;;;;;;;;;;;30.03;45.56;99698.69;5011173;28;19921;-79
2023/06/22 11:59:55;;;;;;;;;;;;;;;29.94;44.79;99655.91;5007501;28;19922;-79
2023/06/22 12:02:21;;;;;;;;;;;;;;;29.92;45.18;99647.22;5022502;28;19921;-77
2023/06/22 12:04:46;;;;;;;;;;;;;;;29.93;45.58;99670.59;5019349;28;19922;-80
2023/06/22 12:07:11;;;;;;;;;;;;;;;29.99;44.54;99680.41;5010322;28;19928;-80
2023/06/22 12:09:37;;;;;;;;;;;;;;;30.00;43.78;99676.59;5008929;28;19921;-81
2023/06/22 12:12:02;;;;;;;;;;;;;;;30.05;44.40;99690.22;5008481;28;19997;-81
2023/06/22 12:14:28;;;;;;;;;;;;;;;30.21;43.51;99713.72;5009402;28;19922;-82
2023/06/22 12:16:53;;;;;;;;;;;;;;;30.40;43.47;99731.16;5010439;28;20274;-81
2023/06/22 12:19:19;;;;;;;;;;;;;;;30.62;43.39;99743.78;5008229;28;19940;-82
2023/06/22 12:21:45;;;;;;;;;;;;;;;30.75;42.56;99752.25;5012090;28;19952;-87
2023/06/22 12:24:11;;;;;;;;;;;;;;;30.77;41.36;99747.34;5005668;28;19948;-85
2023/06/22 12:26:36;;;;;;;;;;;;;;;30.77;42.69;99746.53;5012360;28;20373;-80
2023/06/22 12:29:01;;;;;;;;;;;;;;;30.79;42.20;99725.31;5012202;28;19921;-82
2023/06/22 12:31:27;;;;;;;;;;;;;;;30.78;40.12;99742.72;5014337;28;19921;-83
2023/06/22 12:33:52;;;;;;;;;;;;;;;30.86;41.23;99745.75;5012043;28;20364;-82